Observation data for Ralls on 01/18/2019      Previous  Date  Next       Current Mesonet Observations  Soil Data  Daily Summary Page  Observations in Plain Language
KRLS 180600Z 19006KT 03/M01 A3002 RMK A01 T00291011  RH  076%=      5-min Rain = 0
KRLS 180605Z 19006KT 03/M01 A3002 RMK A01 T00281011  RH  076%=      5-min Rain = 0
KRLS 180610Z 19007KT 03/M01 A3002 RMK A01 T00261013  RH  076%=      5-min Rain = 0
KRLS 180615Z 19009KT 03/M01 A3002 RMK A01 T00271012  RH  076%=      5-min Rain = 0
KRLS 180620Z 20010KT 03/M01 A3002 RMK A01 T00281013  RH  075%=      5-min Rain = 0
KRLS 180625Z 20011KT 03/M02 A3002 RMK A01 T00281015  RH  074%=      5-min Rain = 0
KRLS 180630Z 20012KT 04/M01 A3002 RMK A01 T00351012  RH  072%=      5-min Rain = 0
KRLS 180635Z 20011KT 04/M01 A3001 RMK A01 T00371012  RH  071%=      5-min Rain = 0
KRLS 180640Z 20008KT 04/M01 A3001 RMK A01 T00381011  RH  071%=      5-min Rain = 0
KRLS 180645Z 20009KT 04/M01 A3001 RMK A01 T00411010  RH  070%=      5-min Rain = 0
KRLS 180650Z 20010KT 04/M01 A3001 RMK A01 T00421010  RH  070%=      5-min Rain = 0
KRLS 180655Z 20010KT 04/M01 A3001 RMK A01 T00441009  RH  069%=      5-min Rain = 0
KRLS 180700Z 21009KT 04/M01 A3001 RMK A01 T00441010  RH  068%=      5-min Rain = 0
KRLS 180705Z 20010KT 05/M01 A30 RMK A01 T00451010  RH  068%=      5-min Rain = 0
KRLS 180710Z 21009KT 04/M01 A30 RMK A01 T00441011  RH  068%=      5-min Rain = 0
KRLS 180715Z 21009KT 05/M01 A30 RMK A01 T00451011  RH  068%=      5-min Rain = 0
KRLS 180720Z 21009KT 04/M01 A2999 RMK A01 T00411013  RH  068%=      5-min Rain = 0
KRLS 180725Z 21009KT 04/M01 A2999 RMK A01 T00381014  RH  070%=      5-min Rain = 0
KRLS 180730Z 21009KT 04/M01 A2999 RMK A01 T00371014  RH  070%=      5-min Rain = 0
KRLS 180735Z 21009KT 04/M01 A2999 RMK A01 T00391013  RH  070%=      5-min Rain = 0
KRLS 180740Z 21009KT 04/M01 A2998 RMK A01 T00381014  RH  069%=      5-min Rain = 0
KRLS 180745Z 20010KT 04/M02 A2998 RMK A01 T00361015  RH  070%=      5-min Rain = 0
KRLS 180750Z 21010KT 04/M01 A2998 RMK A01 T00351014  RH  071%=      5-min Rain = 0
KRLS 180755Z 21010KT 04/M01 A2998 RMK A01 T00391013  RH  070%=      5-min Rain = 0
KRLS 180800Z 21010KT 04/M01 A2998 RMK A01 T00381013  RH  070%=      5-min Rain = 0
KRLS 180805Z 21010KT 04/M01 A2997 RMK A01 T00371013  RH  070%=      5-min Rain = 0
KRLS 180810Z 20010KT 04/M01 A2997 RMK A01 T00361013  RH  071%=      5-min Rain = 0
KRLS 180815Z 21010KT 04/M01 A2997 RMK A01 T00361012  RH  072%=      5-min Rain = 0
KRLS 180820Z 21011KT 04/M01 A2997 RMK A01 T00401009  RH  071%=      5-min Rain = 0
KRLS 180825Z 21011KT 04/M01 A2996 RMK A01 T00401009  RH  071%=      5-min Rain = 0
KRLS 180830Z 21011KT 04/M01 A2996 RMK A01 T00401009  RH  071%=      5-min Rain = 0
KRLS 180835Z 21010KT 04/M01 A2996 RMK A01 T00351011  RH  072%=      5-min Rain = 0
KRLS 180840Z 21009KT 03/M01 A2996 RMK A01 T00301012  RH  074%=      5-min Rain = 0
KRLS 180845Z 21009KT 03/M01 A2996 RMK A01 T00271013  RH  075%=      5-min Rain = 0
KRLS 180850Z 21011KT 03/M01 A2996 RMK A01 T00311009  RH  076%=      5-min Rain = 0
KRLS 180855Z 21011KT 04/M00 A2995 RMK A01 T00401004  RH  074%=      5-min Rain = 0
KRLS 180900Z 21010KT 04/M01 A2995 RMK A01 T00411005  RH  073%=      5-min Rain = 0
KRLS 180905Z 21010KT 04/M01 A2995 RMK A01 T00381007  RH  073%=      5-min Rain = 0
KRLS 180910Z 21010KT 04/M00 A2995 RMK A01 T00401004  RH  074%=      5-min Rain = 0
KRLS 180915Z 21010KT 04/M00 A2994 RMK A01 T00421002  RH  074%=      5-min Rain = 0
KRLS 180920Z 21009KT 04/M00 A2994 RMK A01 T00431001  RH  074%=      5-min Rain = 0
KRLS 180925Z 21008KT 04/M00 A2994 RMK A01 T00391003  RH  075%=      5-min Rain = 0
KRLS 180930Z 22008KT 04/M00 A2994 RMK A01 T00371003  RH  076%=      5-min Rain = 0
KRLS 180935Z 22008KT 04/M00 A2994 RMK A01 T00381003  RH  075%=      5-min Rain = 0
KRLS 180940Z 22008KT 04/M01 A2993 RMK A01 T00361005  RH  075%=      5-min Rain = 0
KRLS 180945Z 22008KT 03/M01 A2993 RMK A01 T00311007  RH  077%=      5-min Rain = 0
KRLS 180950Z 22008KT 03/M01 A2993 RMK A01 T00321005  RH  077%=      5-min Rain = 0
KRLS 180955Z 23007KT 03/M01 A2993 RMK A01 T00321005  RH  077%=      5-min Rain = 0
KRLS 181000Z 24006KT 03/M00 A2993 RMK A01 T00331003  RH  078%=      5-min Rain = 0
KRLS 181005Z 23007KT 03/M00 A2993 RMK A01 T00321003  RH  079%=      5-min Rain = 0
KRLS 181010Z 23007KT 03/M01 A2992 RMK A01 T00271008  RH  078%=      5-min Rain = 0
KRLS 181015Z 23008KT 03/M01 A2992 RMK A01 T00271006  RH  079%=      5-min Rain = 0
KRLS 181020Z 22009KT 03/M00 A2992 RMK A01 T00331003  RH  078%=      5-min Rain = 0
KRLS 181025Z 23008KT 04/M00 A2991 RMK A01 T00351003  RH  077%=      5-min Rain = 0
KRLS 181030Z 23009KT 03/M00 A2991 RMK A01 T00341003  RH  077%=      5-min Rain = 0
KRLS 181035Z 23009KT 03/M00 A2991 RMK A01 T00341004  RH  077%=      5-min Rain = 0
KRLS 181040Z 23009KT 03/M01 A2991 RMK A01 T00331005  RH  077%=      5-min Rain = 0
KRLS 181045Z 23007KT 03/M01 A2991 RMK A01 T00321006  RH  077%=      5-min Rain = 0
KRLS 181050Z 22008KT 03/M01 A299 RMK A01 T00251010  RH  078%=      5-min Rain = 0
KRLS 181055Z 22008KT 03/M01 A299 RMK A01 T00261009  RH  079%=      5-min Rain = 0
KRLS 181100Z 22010KT 03/M01 A2989 RMK A01 T00261008  RH  079%=      5-min Rain = 0
KRLS 181105Z 22011KT 02/M01 A2989 RMK A01 T00231009  RH  080%=      5-min Rain = 0
KRLS 181110Z 22011KT 02/M01 A2989 RMK A01 T00241008  RH  080%=      5-min Rain = 0
KRLS 181115Z 22010KT 02/M01 A2988 RMK A01 T00241008  RH  080%=      5-min Rain = 0
KRLS 181120Z 22009KT 03/M01 A2988 RMK A01 T00261007  RH  080%=      5-min Rain = 0
KRLS 181125Z 22010KT 03/M01 A2988 RMK A01 T00281006  RH  079%=      5-min Rain = 0
KRLS 181130Z 22011KT 03/M01 A2987 RMK A01 T00301005  RH  078%=      5-min Rain = 0
KRLS 181135Z 22012KT 03/M01 A2986 RMK A01 T00331005  RH  077%=      5-min Rain = 0
KRLS 181140Z 22011KT 04/M01 A2986 RMK A01 T00351005  RH  076%=      5-min Rain = 0
KRLS 181145Z 22012KT 04/M01 A2986 RMK A01 T00371005  RH  075%=      5-min Rain = 0
KRLS 181150Z 22012KT 04/M01 A2985 RMK A01 T00371005  RH  075%=      5-min Rain = 0
KRLS 181155Z 23012KT 04/M00 A2985 RMK A01 T00391004  RH  075%=      5-min Rain = 0
KRLS 181200Z 23013KT 04/M00 A2985 RMK A01 T00401003  RH  074%=      5-min Rain = 0
KRLS 181205Z 23013KT 04/M00 A2985 RMK A01 T00421003  RH  073%=      5-min Rain = 0
KRLS 181210Z 23014KT 05/M00 A2985 RMK A01 T00471002  RH  072%=      5-min Rain = 0
KRLS 181215Z 23012KT 05/M00 A2985 RMK A01 T00461003  RH  071%=      5-min Rain = 0
KRLS 181220Z 23012KT 05/M00 A2985 RMK A01 T00461003  RH  071%=      5-min Rain = 0
KRLS 181225Z 23012KT 05/M00 A2985 RMK A01 T00461003  RH  071%=      5-min Rain = 0
KRLS 181230Z 23012KT 05/M00 A2985 RMK A01 T00481002  RH  071%=      5-min Rain = 0
KRLS 181235Z 23012KT 05/M00 A2984 RMK A01 T00481002  RH  071%=      5-min Rain = 0
KRLS 181240Z 22013KT 05/M00 A2984 RMK A01 T00501002  RH  070%=      5-min Rain = 0
KRLS 181245Z 22012KT 05/M00 A2984 RMK A01 T00491002  RH  070%=      5-min Rain = 0
KRLS 181250Z 22012KT 05/M00 A2983 RMK A01 T00481002  RH  071%=      5-min Rain = 0
KRLS 181255Z 22012KT 05/M00 A2984 RMK A01 T00471002  RH  071%=      5-min Rain = 0
KRLS 181300Z 22012KT 05/M00 A2984 RMK A01 T00471001  RH  071%=      5-min Rain = 0
KRLS 181305Z 22013KT 05/M00 A2984 RMK A01 T00481001  RH  071%=      5-min Rain = 0
KRLS 181310Z 22012KT 05/M00 A2984 RMK A01 T00471001  RH  072%=      5-min Rain = 0
KRLS 181315Z 22012KT 05/M00 A2983 RMK A01 T00481001  RH  072%=      5-min Rain = 0
KRLS 181320Z 23012KT 05/00 A2984 RMK A01 T004900-0  RH  071%=      5-min Rain = 0
KRLS 181325Z 23012KT 05/00 A2983 RMK A01 T005000-0  RH  071%=      5-min Rain = 0
KRLS 181330Z 22013KT 05/00 A2983 RMK A01 T005200-0  RH  070%=      5-min Rain = 0
KRLS 181335Z 23013KT 06/00 A2984 RMK A01 T00550000  RH  069%=      5-min Rain = 0
KRLS 181340Z 23012KT 06/00 A2984 RMK A01 T00570001  RH  068%=      5-min Rain = 0
KRLS 181345Z 24012KT 06/00 A2984 RMK A01 T00570001  RH  068%=      5-min Rain = 0
KRLS 181350Z 24012KT 06/00 A2984 RMK A01 T00560001  RH  068%=      5-min Rain = 0
KRLS 181355Z 23013KT 06/00 A2984 RMK A01 T00570001  RH  068%=      5-min Rain = 0
KRLS 181400Z 22014KT 06/00 A2983 RMK A01 T00590001  RH  067%=      5-min Rain = 0
KRLS 181405Z 23013G18KT 06/00 A2983 RMK A01 T00610001  RH  066%=      5-min Rain = 0
KRLS 181410Z 23012KT 06/00 A2983 RMK A01 T00620002  RH  066%=      5-min Rain = 0
KRLS 181415Z 23014KT 07/00 A2983 RMK A01 T00650003  RH  065%=      5-min Rain = 0
KRLS 181420Z 23014KT 07/00 A2983 RMK A01 T00700004  RH  064%=      5-min Rain = 0
KRLS 181425Z 23015KT 07/00 A2983 RMK A01 T00710004  RH  063%=      5-min Rain = 0
KRLS 181430Z 23015KT 07/00 A2982 RMK A01 T00720003  RH  062%=      5-min Rain = 0
KRLS 181435Z 23014KT 07/00 A2982 RMK A01 T00710002  RH  062%=      5-min Rain = 0
KRLS 181440Z 23014KT 07/00 A2982 RMK A01 T00710002  RH  062%=      5-min Rain = 0
KRLS 181445Z 24013KT 07/00 A2982 RMK A01 T00680001  RH  063%=      5-min Rain = 0
KRLS 181450Z 24012KT 07/00 A2982 RMK A01 T00660001  RH  064%=      5-min Rain = 0
KRLS 181455Z 24012KT 07/00 A2982 RMK A01 T00710004  RH  063%=      5-min Rain = 0
KRLS 181500Z 24013KT 08/01 A2981 RMK A01 T00770005  RH  061%=      5-min Rain = 0
KRLS 181505Z 24013KT 08/01 A2981 RMK A01 T00820006  RH  059%=      5-min Rain = 0
KRLS 181510Z 24015KT 09/01 A2981 RMK A01 T00850006  RH  058%=      5-min Rain = 0
KRLS 181515Z 24016KT 09/01 A2981 RMK A01 T00880007  RH  057%=      5-min Rain = 0
KRLS 181520Z 24016KT 09/01 A2981 RMK A01 T00910008  RH  056%=      5-min Rain = 0
KRLS 181525Z 24016KT 10/01 A2981 RMK A01 T00950008  RH  055%=      5-min Rain = 0
KRLS 181530Z 24016KT 10/01 A2981 RMK A01 T00990009  RH  054%=      5-min Rain = 0
KRLS 181535Z 24016G21KT 10/01 A2982 RMK A01 T01020010  RH  054%=      5-min Rain = 0
KRLS 181540Z 24016G21KT 11/01 A2981 RMK A01 T01060011  RH  052%=      5-min Rain = 0
KRLS 181545Z 23014KT 11/01 A2981 RMK A01 T01110012  RH  051%=      5-min Rain = 0
KRLS 181550Z 23015KT 11/01 A298 RMK A01 T01140012  RH  050%=      5-min Rain = 0
KRLS 181555Z 23015KT 12/01 A2981 RMK A01 T01170012  RH  049%=      5-min Rain = 0
KRLS 181600Z 24016KT 12/01 A2981 RMK A01 T01200012  RH  048%=      5-min Rain = 0
KRLS 181605Z 24016KT 12/01 A298 RMK A01 T01220012  RH  047%=      5-min Rain = 0
KRLS 181610Z 24016KT 13/01 A298 RMK A01 T01270011  RH  046%=      5-min Rain = 0
KRLS 181615Z 24015KT 13/01 A298 RMK A01 T01320012  RH  045%=      5-min Rain = 0
KRLS 181620Z 24015KT 14/01 A298 RMK A01 T01360013  RH  044%=      5-min Rain = 0
KRLS 181625Z 24015G21KT 14/01 A298 RMK A01 T01370010  RH  043%=      5-min Rain = 0
KRLS 181630Z 24014G20KT 14/01 A298 RMK A01 T01370011  RH  043%=      5-min Rain = 0
KRLS 181635Z 24014KT 14/01 A298 RMK A01 T01420011  RH  041%=      5-min Rain = 0
KRLS 181640Z 24016KT 15/01 A298 RMK A01 T01490012  RH  040%=      5-min Rain = 0
KRLS 181645Z 24017G26KT 16/01 A2979 RMK A01 T01560011  RH  038%=      5-min Rain = 0
KRLS 181650Z 25020G26KT 16/01 A2979 RMK A01 T01620005  RH  035%=      5-min Rain = 0
KRLS 181655Z 25020KT 16/00 A2978 RMK A01 T01640002  RH  034%=      5-min Rain = 0
KRLS 181700Z 24019G24KT 17/01 A2978 RMK A01 T01690005  RH  033%=      5-min Rain = 0
KRLS 181705Z 24019G25KT 17/01 A2979 RMK A01 T01710006  RH  033%=      5-min Rain = 0
KRLS 181710Z 24022KT 17/00 A2979 RMK A01 T01700003  RH  033%=      5-min Rain = 0
KRLS 181715Z 24020G26KT 17/00 A2978 RMK A01 T01710004  RH  033%=      5-min Rain = 0
KRLS 181720Z 24021G26KT 17/00 A2978 RMK A01 T01720002  RH  032%=      5-min Rain = 0
KRLS 181725Z 24020KT 18/00 A2978 RMK A01 T01750004  RH  032%=      5-min Rain = 0
KRLS 181730Z 25020G29KT 18/00 A2977 RMK A01 T01780002  RH  031%=      5-min Rain = 0
KRLS 181735Z 24019G27KT 18/01 A2977 RMK A01 T01810005  RH  031%=      5-min Rain = 0
KRLS 181740Z 25022G29KT 18/00 A2977 RMK A01 T01810000  RH  030%=      5-min Rain = 0
KRLS 181745Z 25023G34KT 18/M00 A2977 RMK A01 T01831001  RH  029%=      5-min Rain = 0
KRLS 181750Z 25023G28KT 18/M00 A2976 RMK A01 T01791003  RH  029%=      5-min Rain = 0
KRLS 181755Z 25022G29KT 18/M00 A2975 RMK A01 T01811001  RH  030%=      5-min Rain = 0
KRLS 181800Z 25021G26KT 18/M00 A2975 RMK A01 T01801003  RH  029%=      5-min Rain = 0
KRLS 181805Z 26020G25KT 19/00 A2975 RMK A01 T01910001  RH  028%=      5-min Rain = 0
KRLS 181810Z 26020KT 19/M00 A2975 RMK A01 T01911001  RH  028%=      5-min Rain = 0
KRLS 181815Z 26021G30KT 19/M01 A2974 RMK A01 T01921005  RH  027%=      5-min Rain = 0
KRLS 181820Z 26022G29KT 19/M01 A2974 RMK A01 T01911010  RH  026%=      5-min Rain = 0
KRLS 181825Z 26022G29KT 19/M01 A2973 RMK A01 T01911009  RH  026%=      5-min Rain = 0
KRLS 181830Z 26025G33KT 19/M01 A2973 RMK A01 T01881009  RH  027%=      5-min Rain = 0
KRLS 181835Z 26026G34KT 19/M01 A2972 RMK A01 T01861010  RH  027%=      5-min Rain = 0
KRLS 181840Z 27022G28KT 19/M01 A2972 RMK A01 T01881009  RH  027%=      5-min Rain = 0
KRLS 181845Z 25022G28KT 19/M01 A2971 RMK A01 T01881009  RH  027%=      5-min Rain = 0
KRLS 181850Z 26020G27KT 19/M01 A2971 RMK A01 T01891007  RH  027%=      5-min Rain = 0
KRLS 181855Z 26025G32KT 19/M01 A297 RMK A01 T01911008  RH  026%=      5-min Rain = 0
KRLS 181900Z 26022G33KT 20/M00 A297 RMK A01 T01981002  RH  026%=      5-min Rain = 0
KRLS 181905Z 26028G35KT 20/M01 A297 RMK A01 T01991005  RH  026%=      5-min Rain = 0
KRLS 181910Z 27026G35KT 20/M01 A2969 RMK A01 T01971006  RH  026%=      5-min Rain = 0
KRLS 181915Z 26029G34KT 19/M01 A2969 RMK A01 T01931006  RH  026%=      5-min Rain = 0
KRLS 181920Z 27026G35KT 19/M00 A2968 RMK A01 T01931004  RH  027%=      5-min Rain = 0
KRLS 181925Z 26022G31KT 20/M00 A2969 RMK A01 T01951001  RH  027%=      5-min Rain = 0
KRLS 181930Z 26025G36KT 20/M00 A2968 RMK A01 T01971002  RH  026%=      5-min Rain = 0
KRLS 181935Z 26027G37KT 20/M01 A2968 RMK A01 T01961005  RH  026%=      5-min Rain = 0
KRLS 181940Z 26026G35KT 20/M00 A2968 RMK A01 T02001003  RH  026%=      5-min Rain = 0
KRLS 181945Z 27027G34KT 20/M00 A2967 RMK A01 T01971003  RH  026%=      5-min Rain = 0
KRLS 181950Z 26025G33KT 20/M00 A2967 RMK A01 T01991002  RH  026%=      5-min Rain = 0
KRLS 181955Z 27024G29KT 20/M00 A2966 RMK A01 T02031001  RH  026%=      5-min Rain = 0
KRLS 182000Z 26025G32KT 20/M00 A2966 RMK A01 T01991004  RH  026%=      5-min Rain = 0
KRLS 182005Z 26023G30KT 20/M00 A2965 RMK A01 T01951004  RH  027%=      5-min Rain = 0
KRLS 182010Z 27025G31KT 19/M01 A2965 RMK A01 T01901007  RH  027%=      5-min Rain = 0
KRLS 182015Z 27025G32KT 19/M01 A2965 RMK A01 T01871008  RH  027%=      5-min Rain = 0
KRLS 182020Z 26024G31KT 19/M01 A2965 RMK A01 T01921007  RH  026%=      5-min Rain = 0
KRLS 182025Z 27026G31KT 20/M01 A2965 RMK A01 T01981006  RH  026%=      5-min Rain = 0
KRLS 182030Z 27025G34KT 20/M01 A2965 RMK A01 T02001007  RH  025%=      5-min Rain = 0
KRLS 182035Z 27025G32KT 20/M01 A2965 RMK A01 T01961009  RH  025%=      5-min Rain = 0
KRLS 182040Z 27024G34KT 19/M01 A2965 RMK A01 T01941008  RH  026%=      5-min Rain = 0
KRLS 182045Z 26025G31KT 19/M01 A2965 RMK A01 T01931007  RH  026%=      5-min Rain = 0
KRLS 182050Z 26022G29KT 20/M01 A2965 RMK A01 T02021007  RH  025%=      5-min Rain = 0
KRLS 182055Z 26026G35KT 19/M01 A2965 RMK A01 T01941014  RH  025%=      5-min Rain = 0
KRLS 182100Z 27027G35KT 19/M02 A2965 RMK A01 T01851015  RH  026%=      5-min Rain = 0
KRLS 182105Z 26026G34KT 19/M01 A2964 RMK A01 T01931013  RH  025%=      5-min Rain = 0
KRLS 182110Z 27028G37KT 20/M01 A2964 RMK A01 T01961012  RH  025%=      5-min Rain = 0
KRLS 182115Z 27029G37KT 19/M01 A2964 RMK A01 T01931009  RH  026%=      5-min Rain = 0
KRLS 182120Z 26028G39KT 19/M01 A2964 RMK A01 T01891009  RH  026%=      5-min Rain = 0
KRLS 182125Z 26028G37KT 19/M01 A2964 RMK A01 T01881011  RH  026%=      5-min Rain = 0
KRLS 182130Z 27031G38KT 19/M01 A2964 RMK A01 T01891014  RH  026%=      5-min Rain = 0
KRLS 182135Z 27030G38KT 19/M01 A2965 RMK A01 T01861012  RH  026%=      5-min Rain = 0
KRLS 182140Z 27026G36KT 19/M01 A2965 RMK A01 T01851008  RH  027%=      5-min Rain = 0
KRLS 182145Z 26028G37KT 18/M01 A2965 RMK A01 T01821006  RH  028%=      5-min Rain = 0
KRLS 182150Z 26031G38KT 18/M00 A2965 RMK A01 T01801001  RH  030%=      5-min Rain = 0
KRLS 182155Z 26028G38KT 18/M00 A2965 RMK A01 T01761001  RH  030%=      5-min Rain = 0
KRLS 182200Z 26025G33KT 17/M01 A2966 RMK A01 T01731006  RH  030%=      5-min Rain = 0
KRLS 182205Z 26028G36KT 17/M01 A2965 RMK A01 T01711011  RH  029%=      5-min Rain = 0
KRLS 182210Z 26025G34KT 17/M01 A2965 RMK A01 T01701009  RH  030%=      5-min Rain = 0
KRLS 182215Z 26025G35KT 17/M01 A2965 RMK A01 T01731009  RH  029%=      5-min Rain = 0
KRLS 182220Z 26028G37KT 17/M01 A2965 RMK A01 T01731014  RH  028%=      5-min Rain = 0
KRLS 182225Z 26029G39KT 17/M02 A2965 RMK A01 T01711017  RH  028%=      5-min Rain = 0
KRLS 182230Z 26027G39KT 17/M02 A2965 RMK A01 T01731015  RH  028%=      5-min Rain = 0
KRLS 182235Z 27029G37KT 17/M02 A2965 RMK A01 T01721023  RH  027%=      5-min Rain = 0
KRLS 182240Z 26027G37KT 17/M03 A2966 RMK A01 T01681028  RH  026%=      5-min Rain = 0
KRLS 182245Z 26026G33KT 17/M03 A2966 RMK A01 T01661027  RH  027%=      5-min Rain = 0
KRLS 182250Z 26025G35KT 16/M03 A2966 RMK A01 T01641028  RH  027%=      5-min Rain = 0
KRLS 182255Z 26027G34KT 16/M03 A2966 RMK A01 T01641032  RH  026%=      5-min Rain = 0
KRLS 182300Z 26026G35KT 16/M04 A2966 RMK A01 T01631036  RH  025%=      5-min Rain = 0
KRLS 182305Z 26025G31KT 16/M04 A2966 RMK A01 T01611036  RH  026%=      5-min Rain = 0
KRLS 182310Z 25025G32KT 16/M04 A2967 RMK A01 T01601035  RH  026%=      5-min Rain = 0
KRLS 182315Z 25023G29KT 16/M04 A2967 RMK A01 T01581035  RH  026%=      5-min Rain = 0
KRLS 182320Z 25021G27KT 16/M04 A2967 RMK A01 T01571036  RH  027%=      5-min Rain = 0
KRLS 182325Z 25021G26KT 16/M04 A2966 RMK A01 T01571037  RH  026%=      5-min Rain = 0
KRLS 182330Z 25021G26KT 16/M04 A2967 RMK A01 T01571037  RH  026%=      5-min Rain = 0
KRLS 182335Z 25021G29KT 16/M04 A2967 RMK A01 T01561038  RH  026%=      5-min Rain = 0
KRLS 182340Z 24020G27KT 16/M04 A2967 RMK A01 T01551039  RH  026%=      5-min Rain = 0
KRLS 182345Z 25017G23KT 15/M04 A2966 RMK A01 T01541042  RH  026%=      5-min Rain = 0
KRLS 182350Z 25014G20KT 15/M04 A2965 RMK A01 T01511044  RH  026%=      5-min Rain = 0
KRLS 182355Z 25017G22KT 15/M05 A2967 RMK A01 T01481046  RH  026%=      5-min Rain = 0
KRLS 190000Z 26018G25KT 15/M05 A2967 RMK A01 T01461053  RH  025%=      5-min Rain = 0
KRLS 190005Z 25017G22KT 15/M06 A2967 RMK A01 T01451055  RH  025%=      5-min Rain = 0
KRLS 190010Z 25017G23KT 15/M06 A2967 RMK A01 T01451057  RH  024%=      5-min Rain = 0
KRLS 190015Z 25016G21KT 14/M06 A2968 RMK A01 T01431057  RH  024%=      5-min Rain = 0
KRLS 190020Z 26017G25KT 14/M06 A2968 RMK A01 T01391058  RH  025%=      5-min Rain = 0
KRLS 190025Z 27021G30KT 14/M06 A2969 RMK A01 T01441063  RH  023%=      5-min Rain = 0
KRLS 190030Z 28019G27KT 14/M07 A2969 RMK A01 T01391066  RH  023%=      5-min Rain = 0
KRLS 190035Z 27016G22KT 14/M07 A2969 RMK A01 T01351068  RH  024%=      5-min Rain = 0
KRLS 190040Z 27015G20KT 13/M07 A2969 RMK A01 T01321067  RH  024%=      5-min Rain = 0
KRLS 190045Z 27014G21KT 13/M07 A2969 RMK A01 T01301066  RH  025%=      5-min Rain = 0
KRLS 190050Z 27014G19KT 13/M07 A297 RMK A01 T01281065  RH  025%=      5-min Rain = 0
KRLS 190055Z 26015KT 13/M06 A297 RMK A01 T01261063  RH  026%=      5-min Rain = 0
KRLS 190100Z 26014KT 12/M06 A297 RMK A01 T01241060  RH  027%=      5-min Rain = 0
KRLS 190105Z 25013KT 12/M06 A297 RMK A01 T01211058  RH  028%=      5-min Rain = 0
KRLS 190110Z 25012KT 12/M06 A2969 RMK A01 T01191057  RH  029%=      5-min Rain = 0
KRLS 190115Z 25012KT 12/M06 A2969 RMK A01 T01161056  RH  030%=      5-min Rain = 0
KRLS 190120Z 25011KT 11/M06 A2969 RMK A01 T01111055  RH  031%=      5-min Rain = 0
KRLS 190125Z 28017G34KT 11/M05 A2972 RMK A01 T01091052  RH  032%=      5-min Rain = 0
KRLS 190130Z 32028G37KT 09/M02 A2974 RMK A01 T00891020  RH  047%=      5-min Rain = 0
KRLS 190135Z 33031G39KT 08/M01 A2975 RMK A01 T00771014  RH  053%=      5-min Rain = 0
KRLS 190140Z 33029G40KT 07/M01 A2976 RMK A01 T00681014  RH  056%=      5-min Rain = 0
KRLS 190145Z 34027G38KT 07/M02 A2978 RMK A01 T00651015  RH  057%=      5-min Rain = 0
KRLS 190150Z 34028G36KT 06/M02 A2978 RMK A01 T00611016  RH  058%=      5-min Rain = 0
KRLS 190155Z 34024G32KT 06/M02 A2979 RMK A01 T00561017  RH  060%=      5-min Rain = 0
KRLS 190200Z 34028G39KT 05/M02 A2979 RMK A01 T00521018  RH  061%=      5-min Rain = 0
KRLS 190205Z 34027G39KT 05/M02 A298 RMK A01 T00491018  RH  062%=      5-min Rain = 0
KRLS 190210Z 34028G36KT 05/M02 A2981 RMK A01 T00481019  RH  062%=      5-min Rain = 0
KRLS 190215Z 34028G40KT 05/M02 A2982 RMK A01 T00461019  RH  063%=      5-min Rain = 0
KRLS 190220Z 35025G32KT 04/M02 A2983 RMK A01 T00441020  RH  064%=      5-min Rain = 0
KRLS 190225Z 35023G33KT 04/M02 A2983 RMK A01 T00421020  RH  064%=      5-min Rain = 0
KRLS 190230Z 35022G32KT 04/M02 A2983 RMK A01 T00431019  RH  065%=      5-min Rain = 0
KRLS 190235Z 34022G29KT 05/M02 A2983 RMK A01 T00451018  RH  065%=      5-min Rain = 0
KRLS 190240Z 34023G31KT 05/M02 A2984 RMK A01 T00461017  RH  064%=      5-min Rain = 0
KRLS 190245Z 34019G25KT 05/M02 A2985 RMK A01 T00471016  RH  064%=      5-min Rain = 0
KRLS 190250Z 34020G28KT 05/M02 A2985 RMK A01 T00471016  RH  064%=      5-min Rain = 0
KRLS 190255Z 33023G32KT 05/M02 A2986 RMK A01 T00461017  RH  064%=      5-min Rain = 0
KRLS 190300Z 34027G34KT 04/M02 A2987 RMK A01 T00441018  RH  064%=      5-min Rain = 0
KRLS 190305Z 34019G27KT 04/M02 A2987 RMK A01 T00431019  RH  065%=      5-min Rain = 0
KRLS 190310Z 35023G34KT 04/M02 A2988 RMK A01 T00391020  RH  066%=      5-min Rain = 0
KRLS 190315Z 34026G36KT 04/M02 A2988 RMK A01 T00361023  RH  066%=      5-min Rain = 0
KRLS 190320Z 34027G35KT 03/M03 A2988 RMK A01 T00341027  RH  065%=      5-min Rain = 0
KRLS 190325Z 34029G41KT 03/M03 A2989 RMK A01 T00331029  RH  064%=      5-min Rain = 0
KRLS 190330Z 34028G40KT 03/M03 A2989 RMK A01 T00331030  RH  064%=      5-min Rain = 0
KRLS 190335Z 34025G34KT 03/M03 A2989 RMK A01 T00331030  RH  064%=      5-min Rain = 0
KRLS 190340Z 34026G35KT 03/M03 A299 RMK A01 T00331030  RH  064%=      5-min Rain = 0
KRLS 190345Z 34029G39KT 03/M03 A299 RMK A01 T00331032  RH  063%=      5-min Rain = 0
KRLS 190350Z 33028G36KT 03/M03 A2991 RMK A01 T00321034  RH  062%=      5-min Rain = 0
KRLS 190355Z 34029G37KT 03/M04 A2992 RMK A01 T00311038  RH  061%=      5-min Rain = 0
KRLS 190400Z 34031G41KT 03/M04 A2992 RMK A01 T00301040  RH  060%=      5-min Rain = 0
KRLS 190405Z 34028G40KT 03/M04 A2993 RMK A01 T00291041  RH  060%=      5-min Rain = 0
KRLS 190410Z 34026G36KT 03/M04 A2993 RMK A01 T00291039  RH  061%=      5-min Rain = 0
KRLS 190415Z 34027G36KT 03/M04 A2993 RMK A01 T00291036  RH  063%=      5-min Rain = 0
KRLS 190420Z 34025G35KT 03/M04 A2994 RMK A01 T00291036  RH  063%=      5-min Rain = 0
KRLS 190425Z 34028G36KT 03/M04 A2994 RMK A01 T00281041  RH  061%=      5-min Rain = 0
KRLS 190430Z 34028G36KT 03/M04 A2995 RMK A01 T00271044  RH  060%=      5-min Rain = 0
KRLS 190435Z 35026G35KT 03/M04 A2995 RMK A01 T00261043  RH  060%=      5-min Rain = 0
KRLS 190440Z 34023G33KT 03/M04 A2996 RMK A01 T00261042  RH  061%=      5-min Rain = 0
KRLS 190445Z 34023G29KT 03/M04 A2996 RMK A01 T00271039  RH  062%=      5-min Rain = 0
KRLS 190450Z 34023G32KT 03/M04 A2996 RMK A01 T00261035  RH  064%=      5-min Rain = 0
KRLS 190455Z 34023G33KT 03/M03 A2997 RMK A01 T00251034  RH  065%=      5-min Rain = 0
KRLS 190500Z 34023G33KT 02/M03 A2997 RMK A01 T00241032  RH  067%=      5-min Rain = 0
KRLS 190505Z 34026G32KT 02/M03 A2998 RMK A01 T00211032  RH  068%=      5-min Rain = 0
KRLS 190510Z 34026G35KT 02/M03 A2998 RMK A01 T00191032  RH  069%=      5-min Rain = 0
KRLS 190515Z 34025G34KT 02/M03 A2999 RMK A01 T00151030  RH  072%=      5-min Rain = 0
KRLS 190520Z 33024G31KT 01/M03 A2999 RMK A01 T00131029  RH  074%=      5-min Rain = 0
KRLS 190525Z 33026G32KT 01/M03 A30 RMK A01 T00121028  RH  075%=      5-min Rain = 0
KRLS 190530Z 33022G29KT 01/M03 A30 RMK A01 T00091025  RH  078%=      5-min Rain = 0
KRLS 190535Z 34024G33KT 01/M02 A3001 RMK A01 T00101024  RH  079%=      5-min Rain = 0
KRLS 190540Z 34023G31KT 01/M03 A3001 RMK A01 T00101025  RH  078%=      5-min Rain = 0
KRLS 190545Z 34022G30KT 01/M02 A3002 RMK A01 T00081024  RH  080%=      5-min Rain = 0
KRLS 190550Z 34022G30KT 01/M02 A3002 RMK A01 T00071022  RH  082%=      5-min Rain = 0
KRLS 190555Z 34023G28KT 01/M02 A3002 RMK A01 T00081024  RH  080%=      5-min Rain = 0

Page generated in 0.0092 seconds.